Time;durP1;ratioP1;P1;durP2;ratioP2;P2;SDS_P1;SDS_P2;PMS_P1;PMS_P2;Temp;Humidity;BMP_temperature;BMP_pressure;BME280_temperature;BME280_humidity;BME280_pressure;Samples;Min_cycle;Max_cycle;Signal;HPM_P1;HPM_P2
2022/12/07 00:01:19;;;;;;;2.22;1.58;;;7.00;82.00;;;;;;4971379;28;20089;-60
2022/12/07 00:03:46;;;;;;;2.88;2.20;;;7.10;81.90;;;;;;4971037;28;20038;-59
2022/12/07 00:06:13;;;;;;;1.75;1.65;;;7.00;81.90;;;;;;4972266;28;20035;-59
2022/12/07 00:08:39;;;;;;;1.80;1.23;;;7.00;81.90;;;;;;4971986;28;20027;-57
2022/12/07 00:11:09;;;;;;;2.10;1.50;;;7.00;81.90;;;;;;4970300;28;20504;-58
2022/12/07 00:13:38;;;;;;;2.25;1.13;;;6.90;82.00;;;;;;4971938;28;20373;-57
2022/12/07 00:16:11;;;;;;;3.72;1.67;;;6.90;82.00;;;;;;4972332;28;20035;-58
2022/12/07 00:18:37;;;;;;;2.83;1.40;;;6.80;82.00;;;;;;4972087;28;20039;-59
2022/12/07 00:21:12;;;;;;;3.33;1.77;;;6.80;82.10;;;;;;4971367;28;20031;-58
2022/12/07 00:23:39;;;;;;;1.15;0.85;;;6.80;82.20;;;;;;4971539;28;20142;-58
2022/12/07 00:26:19;;;;;;;1.33;0.88;;;6.70;82.20;;;;;;4972282;28;20035;-59
2022/12/07 00:28:49;;;;;;;2.70;1.33;;;6.70;82.10;;;;;;4972046;28;20538;-56
2022/12/07 00:31:17;;;;;;;5.38;2.30;;;6.70;82.20;;;;;;4970009;28;20043;-58
2022/12/07 00:33:43;;;;;;;1.50;1.25;;;6.60;82.20;;;;;;4969846;28;20058;-59
2022/12/07 00:36:11;;;;;;;1.35;1.17;;;6.60;82.30;;;;;;4970471;28;20085;-59
2022/12/07 00:38:38;;;;;;;3.03;1.65;;;6.60;82.20;;;;;;4971095;28;20038;-60
2022/12/07 00:41:13;;;;;;;2.05;1.33;;;6.60;82.20;;;;;;4971382;28;20058;-57
2022/12/07 00:43:39;;;;;;;5.05;1.85;;;6.60;82.20;;;;;;4961387;28;20042;-56
2022/12/07 00:46:05;;;;;;;1.73;1.63;;;6.50;82.20;;;;;;4970381;28;20028;-57
2022/12/07 00:48:31;;;;;;;2.33;1.27;;;6.50;82.20;;;;;;4971987;28;20647;-58
2022/12/07 00:50:57;;;;;;;4.50;1.60;;;6.50;82.20;;;;;;4971472;28;20039;-57
2022/12/07 00:53:23;;;;;;;1.95;1.63;;;6.50;82.30;;;;;;4971366;28;20034;-57
2022/12/07 00:55:48;;;;;;;2.05;1.45;;;6.50;82.30;;;;;;4971295;28;20049;-59
2022/12/07 00:58:14;;;;;;;1.77;1.38;;;6.40;82.20;;;;;;4970694;28;20129;-59
2022/12/07 01:00:42;;;;;;;2.35;1.50;;;6.40;82.30;;;;;;4970568;28;20031;-59
2022/12/07 01:03:09;;;;;;;2.25;1.60;;;6.40;82.20;;;;;;4971582;28;20493;-59
2022/12/07 01:05:35;;;;;;;1.35;1.10;;;6.40;82.30;;;;;;4972322;28;20050;-57
2022/12/07 01:08:01;;;;;;;1.98;1.35;;;6.30;82.30;;;;;;4971309;28;20066;-59
2022/12/07 01:10:27;;;;;;;1.45;1.30;;;6.30;82.30;;;;;;4970388;28;20077;-57
2022/12/07 01:12:53;;;;;;;2.55;1.45;;;6.30;82.30;;;;;;4970976;28;20470;-55
2022/12/07 01:15:19;;;;;;;1.55;1.20;;;6.20;82.20;;;;;;4970855;28;20134;-56
2022/12/07 01:17:44;;;;;;;4.38;1.70;;;6.20;82.20;;;;;;4970516;28;20039;-57
2022/12/07 01:20:11;;;;;;;2.25;1.33;;;6.10;82.30;;;;;;4969552;28;20047;-57
2022/12/07 01:22:38;;;;;;;2.47;1.48;;;6.10;82.30;;;;;;4971367;28;20026;-59
2022/12/07 01:25:05;;;;;;;2.08;1.65;;;6.10;82.40;;;;;;4968709;28;20034;-58
2022/12/07 01:27:32;;;;;;;1.70;1.45;;;6.10;82.40;;;;;;4966669;28;20122;-55
2022/12/07 01:29:57;;;;;;;1.70;1.15;;;6.10;82.30;;;;;;4967996;28;20508;-56
2022/12/07 01:32:23;;;;;;;4.07;1.75;;;6.10;82.30;;;;;;4969777;28;20034;-56
2022/12/07 01:34:49;;;;;;;4.85;1.48;;;6.10;82.20;;;;;;4970269;28;20053;-57
2022/12/07 01:37:14;;;;;;;2.90;2.00;;;6.00;82.30;;;;;;4971667;28;20037;-59
2022/12/07 01:39:41;;;;;;;2.92;1.38;;;6.00;82.30;;;;;;4966444;28;20062;-59
2022/12/07 01:42:12;;;;;;;2.30;1.83;;;6.00;82.20;;;;;;4959018;28;20045;-59
2022/12/07 01:45:16;;;;;;;4.33;1.43;;;6.00;82.30;;;;;;4970523;28;20043;-58
2022/12/07 01:47:43;;;;;;;2.13;1.52;;;6.00;82.10;;;;;;4970043;28;20039;-59
2022/12/07 01:50:09;;;;;;;1.30;1.20;;;6.00;82.30;;;;;;4968839;28;20034;-58
2022/12/07 01:52:36;;;;;;;3.28;2.00;;;6.00;82.30;;;;;;4969644;28;20027;-59
2022/12/07 01:55:07;;;;;;;1.63;1.50;;;6.00;82.30;;;;;;4970155;28;20133;-57
2022/12/07 01:57:35;;;;;;;2.13;1.60;;;6.00;82.30;;;;;;4969992;28;20062;-57
2022/12/07 02:00:01;;;;;;;2.47;1.48;;;5.90;82.20;;;;;;4969716;28;20069;-59
2022/12/07 02:02:33;;;;;;;1.48;1.20;;;5.90;82.20;;;;;;4970122;28;20039;-59
2022/12/07 02:05:02;;;;;;;1.92;1.52;;;5.90;82.20;;;;;;4969888;28;20034;-58
2022/12/07 02:07:29;;;;;;;2.90;1.88;;;5.80;82.30;;;;;;4968460;28;20019;-59
2022/12/07 02:09:55;;;;;;;1.98;1.20;;;5.80;82.30;;;;;;4962979;28;20027;-59
2022/12/07 02:12:23;;;;;;;2.00;1.60;;;5.80;82.30;;;;;;4969324;28;20023;-59
2022/12/07 02:14:50;;;;;;;5.10;1.70;;;5.70;82.30;;;;;;4970192;28;20171;-59
2022/12/07 02:17:35;;;;;;;3.08;1.48;;;5.70;82.30;;;;;;4970217;28;20165;-59
2022/12/07 02:20:07;;;;;;;8.15;1.58;;;5.80;82.20;;;;;;4968747;28;20437;-56
2022/12/07 02:22:51;;;;;;;3.15;2.38;;;5.70;82.20;;;;;;4966700;28;20061;-57
2022/12/07 02:26:12;;;;;;;1.85;1.55;;;5.70;82.20;;;;;;4964115;28;20498;-57
2022/12/07 02:29:21;;;;;;;1.77;1.40;;;5.70;82.10;;;;;;4915629;29;20027;-60
2022/12/07 02:31:56;;;;;;;2.78;1.70;;;5.60;82.10;;;;;;4968102;28;20023;-59
2022/12/07 02:34:30;;;;;;;1.13;1.02;;;5.60;82.30;;;;;;4969132;28;20105;-59
2022/12/07 02:37:00;;;;;;;2.53;1.52;;;5.60;82.30;;;;;;4984722;28;20027;-57
2022/12/07 02:39:42;;;;;;;1.73;1.27;;;5.50;82.20;;;;;;4970173;28;20041;-57
2022/12/07 02:42:16;;;;;;;1.65;1.55;;;5.50;82.20;;;;;;4986382;28;20035;-59
2022/12/07 02:44:43;;;;;;;1.83;1.55;;;5.50;82.30;;;;;;4973403;28;20038;-57
2022/12/07 02:47:13;;;;;;;2.55;1.55;;;5.50;82.30;;;;;;4973529;28;20027;-57
2022/12/07 02:49:40;;;;;;;1.40;1.30;;;5.50;82.80;;;;;;4972691;28;20491;-57
2022/12/07 02:52:06;;;;;;;8.05;1.25;;;5.50;82.20;;;;;;4971599;28;20019;-57
2022/12/07 02:54:31;;;;;;;1.77;1.25;;;5.40;82.20;;;;;;4970818;28;20425;-56
2022/12/07 02:57:32;;;;;;;2.38;1.15;;;5.50;82.20;;;;;;4971594;28;20046;-59
2022/12/07 03:00:06;;;;;;;3.95;1.52;;;5.50;82.10;;;;;;4973090;28;20453;-59
2022/12/07 03:02:53;;;;;;;1.90;1.02;;;5.40;82.10;;;;;;4972652;28;20062;-57
2022/12/07 03:05:48;;;;;;;1.77;1.30;;;5.40;82.10;;;;;;4972738;28;20038;-57
2022/12/07 03:08:34;;;;;;;1.98;1.25;;;5.40;82.00;;;;;;4972056;28;20031;-59
2022/12/07 03:11:04;;;;;;;2.55;1.42;;;5.30;82.10;;;;;;4971068;28;20545;-59
2022/12/07 03:13:41;;;;;;;2.67;1.45;;;5.30;82.10;;;;;;4971622;28;20053;-59
2022/12/07 03:16:16;;;;;;;2.83;1.90;;;5.30;82.10;;;;;;4971627;28;20023;-59
2022/12/07 03:18:52;;;;;;;4.63;1.98;;;5.40;82.10;;;;;;4973303;28;20035;-59
2022/12/07 03:21:23;;;;;;;3.03;1.48;;;5.40;82.00;;;;;;4970794;28;20042;-59
2022/12/07 03:23:54;;;;;;;2.88;1.52;;;5.50;81.90;;;;;;4971272;28;20501;-59
2022/12/07 03:26:24;;;;;;;2.73;1.57;;;5.50;81.90;;;;;;4972173;28;20385;-59
2022/12/07 03:28:54;;;;;;;1.50;1.02;;;5.50;81.80;;;;;;4973126;28;20018;-59
2022/12/07 03:31:28;;;;;;;1.25;1.17;;;5.60;81.80;;;;;;4970566;28;20404;-59
2022/12/07 03:34:07;;;;;;;2.35;1.55;;;5.60;81.70;;;;;;4972367;28;20054;-59
2022/12/07 03:36:46;;;;;;;1.92;1.08;;;5.70;81.70;;;;;;4968831;28;20035;-59
2022/12/07 03:39:43;;;;;;;1.10;0.85;;;5.70;81.60;;;;;;4986533;28;20026;-59
2022/12/07 03:42:11;;;;;;;1.23;1.13;;;5.70;81.60;;;;;;4970165;28;20533;-57
2022/12/07 03:44:37;;;;;;;1.77;1.00;;;5.70;81.70;;;;;;4971489;28;20043;-54
2022/12/07 03:47:10;;;;;;;2.58;1.30;;;5.70;81.70;;;;;;4970240;28;20034;-55
2022/12/07 03:50:05;;;;;;;1.52;0.82;;;5.80;81.90;;;;;;4972034;28;20085;-57
2022/12/07 03:52:41;;;;;;;1.92;1.05;;;5.80;81.50;;;;;;4966003;28;21167;-55
2022/12/07 03:55:22;;;;;;;2.20;1.40;;;5.80;81.60;;;;;;4969505;28;20050;-55
2022/12/07 03:57:51;;;;;;;1.05;0.90;;;5.80;81.60;;;;;;4967405;28;20036;-59
2022/12/07 04:00:18;;;;;;;1.10;0.90;;;5.80;81.70;;;;;;4962690;28;20548;-59
2022/12/07 04:02:43;;;;;;;3.17;1.73;;;5.90;81.60;;;;;;4971012;28;20422;-56
2022/12/07 04:05:10;;;;;;;1.10;1.05;;;5.90;81.60;;;;;;4971681;28;20074;-59
2022/12/07 04:07:35;;;;;;;1.77;1.30;;;5.90;81.60;;;;;;4971254;28;20023;-56
2022/12/07 04:10:01;;;;;;;3.38;1.33;;;5.90;81.60;;;;;;4968275;28;20030;-59
2022/12/07 04:12:27;;;;;;;2.13;1.45;;;5.90;81.60;;;;;;4970617;28;20035;-56
2022/12/07 04:14:53;;;;;;;0.63;0.50;;;5.90;81.70;;;;;;4969424;28;20090;-59
2022/12/07 04:17:18;;;;;;;1.10;0.95;;;5.90;81.70;;;;;;4970812;28;20062;-59
2022/12/07 04:19:44;;;;;;;1.02;0.70;;;5.90;81.70;;;;;;4971391;28;20026;-59
2022/12/07 04:22:10;;;;;;;1.05;0.88;;;5.90;81.70;;;;;;4970649;28;20410;-57
2022/12/07 04:24:35;;;;;;;1.65;0.88;;;5.80;81.80;;;;;;4970589;28;20972;-57
2022/12/07 04:27:01;;;;;;;0.98;0.85;;;5.80;81.80;;;;;;4970724;28;20042;-59
2022/12/07 04:29:27;;;;;;;0.95;0.70;;;5.80;81.80;;;;;;4970253;28;20045;-56
2022/12/07 04:31:53;;;;;;;0.70;0.68;;;5.80;81.80;;;;;;4969362;28;20504;-60
2022/12/07 04:34:19;;;;;;;0.50;0.50;;;5.80;81.80;;;;;;4970558;28;20031;-60
2022/12/07 04:36:47;;;;;;;3.28;0.93;;;5.80;81.80;;;;;;4970530;28;20027;-56
2022/12/07 04:39:24;;;;;;;1.83;0.85;;;5.80;81.90;;;;;;4971333;28;20113;-57
2022/12/07 04:41:50;;;;;;;1.35;0.82;;;5.90;81.80;;;;;;4970242;28;20049;-57
2022/12/07 04:44:17;;;;;;;1.00;0.90;;;5.80;81.80;;;;;;4971280;28;20070;-57
2022/12/07 04:46:43;;;;;;;1.88;0.68;;;5.80;81.80;;;;;;4970076;28;20037;-57
2022/12/07 04:49:10;;;;;;;2.15;1.13;;;5.80;81.80;;;;;;4971413;28;20513;-57
2022/12/07 04:51:36;;;;;;;0.75;0.60;;;5.80;81.90;;;;;;4970334;28;20077;-56
2022/12/07 04:54:02;;;;;;;2.45;0.95;;;5.90;81.90;;;;;;4969354;28;20043;-57
2022/12/07 04:56:27;;;;;;;1.60;0.85;;;5.90;81.80;;;;;;4970122;28;20110;-56
2022/12/07 04:58:54;;;;;;;2.05;0.95;;;5.90;81.80;;;;;;4967857;28;20035;-57
2022/12/07 05:01:21;;;;;;;1.17;0.68;;;6.00;81.80;;;;;;4970359;28;20382;-56
2022/12/07 05:03:47;;;;;;;4.50;0.82;;;6.00;81.70;;;;;;4971246;28;20520;-57
2022/12/07 05:06:13;;;;;;;1.92;0.93;;;6.00;81.70;;;;;;4966038;28;20022;-57
2022/12/07 05:08:39;;;;;;;1.38;0.90;;;6.00;81.70;;;;;;4976410;28;20073;-56
2022/12/07 05:11:06;;;;;;;2.30;1.00;;;6.00;81.70;;;;;;4969254;28;20038;-59
2022/12/07 05:13:33;;;;;;;2.83;0.85;;;6.00;81.80;;;;;;4970814;28;20477;-59
2022/12/07 05:15:59;;;;;;;0.98;0.40;;;5.90;81.70;;;;;;4970761;28;20505;-59
2022/12/07 05:18:25;;;;;;;4.45;0.85;;;5.90;81.70;;;;;;4969980;28;20023;-59
2022/12/07 05:20:51;;;;;;;7.22;0.85;;;5.90;81.70;;;;;;4963901;28;20093;-59
2022/12/07 05:23:17;;;;;;;0.75;0.65;;;5.80;81.70;;;;;;4963051;28;20050;-57
2022/12/07 05:25:43;;;;;;;0.73;0.57;;;5.80;81.80;;;;;;4968318;28;20057;-58
2022/12/07 05:28:10;;;;;;;0.88;0.52;;;5.70;81.90;;;;;;4972441;28;20038;-59
2022/12/07 05:30:35;;;;;;;1.27;0.90;;;5.60;81.90;;;;;;4967544;28;20414;-58
2022/12/07 05:33:02;;;;;;;4.45;1.05;;;5.60;81.90;;;;;;4965246;28;20070;-58
2022/12/07 05:35:29;;;;;;;0.47;0.47;;;5.50;82.00;;;;;;4960684;28;20118;-58
2022/12/07 05:37:55;;;;;;;0.82;0.68;;;5.40;82.00;;;;;;4970988;28;20371;-58
2022/12/07 05:40:21;;;;;;;0.63;0.60;;;5.50;82.10;;;;;;4968457;28;20424;-59
2022/12/07 05:42:47;;;;;;;0.50;0.50;;;5.40;82.00;;;;;;4970007;28;20026;-59
2022/12/07 05:45:13;;;;;;;0.95;0.70;;;5.40;82.00;;;;;;4969701;28;20054;-59
2022/12/07 05:47:38;;;;;;;0.52;0.50;;;5.40;82.00;;;;;;4963913;28;20027;-59
2022/12/07 05:50:05;;;;;;;1.80;1.02;;;5.40;82.00;;;;;;4961789;28;20039;-58
2022/12/07 05:52:31;;;;;;;1.05;0.75;;;5.40;82.00;;;;;;4958848;28;20031;-57
2022/12/07 05:54:57;;;;;;;0.70;0.70;;;5.40;81.90;;;;;;4959986;28;20385;-57
2022/12/07 05:57:22;;;;;;;2.28;1.00;;;5.40;81.90;;;;;;4961844;28;20041;-55
2022/12/07 05:59:48;;;;;;;1.27;0.95;;;5.40;81.90;;;;;;4960217;28;20121;-58
2022/12/07 06:02:15;;;;;;;0.50;0.50;;;5.30;81.90;;;;;;4961817;28;20034;-57
2022/12/07 06:04:44;;;;;;;1.48;0.85;;;5.30;81.90;;;;;;4956461;28;20130;-57
2022/12/07 06:07:12;;;;;;;0.68;0.63;;;5.30;82.00;;;;;;4962860;28;20019;-56
2022/12/07 06:09:37;;;;;;;2.22;0.80;;;5.30;82.30;;;;;;4962191;28;20031;-57
2022/12/07 06:14:48;;;;;;;2.83;1.00;;;5.20;82.10;;;;;;4968110;28;20049;-57
2022/12/07 06:17:15;;;;;;;1.73;0.70;;;5.20;82.10;;;;;;4972485;28;20480;-56
2022/12/07 06:19:41;;;;;;;2.22;0.85;;;5.20;82.00;;;;;;4974555;28;20564;-57
2022/12/07 06:22:08;;;;;;;1.00;0.70;;;5.10;81.90;;;;;;4972905;28;20031;-57
2022/12/07 06:24:35;;;;;;;0.45;0.40;;;5.10;81.90;;;;;;4973331;28;20462;-60
2022/12/07 06:27:00;;;;;;;1.38;1.00;;;5.00;81.90;;;;;;4974381;28;20102;-59
2022/12/07 06:29:26;;;;;;;0.50;0.50;;;5.00;81.90;;;;;;4973234;28;20197;-59
2022/12/07 06:31:52;;;;;;;0.75;0.75;;;4.90;81.90;;;;;;4973204;28;20023;-59
2022/12/07 06:34:20;;;;;;;0.50;0.50;;;4.90;81.80;;;;;;4972230;28;20589;-65
2022/12/07 06:36:50;;;;;;;0.88;0.80;;;4.90;81.90;;;;;;4973988;28;20023;-59
2022/12/07 06:39:21;;;;;;;1.35;0.77;;;4.80;81.90;;;;;;4971422;28;20454;-59
2022/12/07 06:41:47;;;;;;;2.13;0.77;;;4.80;82.00;;;;;;4971962;28;20023;-56
2022/12/07 06:44:12;;;;;;;1.65;0.90;;;4.70;82.00;;;;;;4964926;28;20074;-58
2022/12/07 06:46:38;;;;;;;1.70;0.82;;;4.70;82.00;;;;;;4972959;28;20100;-58
2022/12/07 06:49:05;;;;;;;0.77;0.70;;;4.70;82.00;;;;;;4971309;28;20449;-60
2022/12/07 06:51:32;;;;;;;1.98;0.98;;;4.70;82.00;;;;;;4972616;28;20363;-58
2022/12/07 06:53:57;;;;;;;0.82;0.65;;;4.70;82.10;;;;;;4971321;28;20043;-61
2022/12/07 06:56:23;;;;;;;2.55;0.40;;;4.70;82.10;;;;;;4972281;28;20057;-61
2022/12/07 06:58:49;;;;;;;0.68;0.52;;;4.70;82.20;;;;;;4968426;28;20042;-69
2022/12/07 07:01:17;;;;;;;6.18;1.02;;;4.80;82.20;;;;;;4968660;28;20027;-60
2022/12/07 07:03:45;;;;;;;2.28;1.13;;;4.80;82.10;;;;;;4971265;28;20062;-58
2022/12/07 07:06:11;;;;;;;0.80;0.80;;;4.90;82.20;;;;;;4972867;28;20035;-58
2022/12/07 07:08:38;;;;;;;0.73;0.52;;;4.90;82.00;;;;;;4970957;28;20030;-61
2022/12/07 07:11:04;;;;;;;0.70;0.70;;;4.90;82.00;;;;;;4971758;28;20023;-61
2022/12/07 07:13:30;;;;;;;4.13;0.95;;;4.90;81.90;;;;;;4971820;28;20457;-58
2022/12/07 07:15:56;;;;;;;0.63;0.55;;;4.90;81.90;;;;;;4972890;28;20035;-58
2022/12/07 07:18:22;;;;;;;1.58;0.30;;;4.90;81.90;;;;;;4970582;28;20121;-58
2022/12/07 07:20:48;;;;;;;1.60;1.10;;;5.00;82.00;;;;;;4972069;28;20501;-58
2022/12/07 07:23:13;;;;;;;2.13;0.80;;;4.90;81.80;;;;;;4969424;28;20030;-58
2022/12/07 07:25:39;;;;;;;3.30;0.70;;;4.90;81.90;;;;;;4969484;28;20051;-58
2022/12/07 07:28:05;;;;;;;6.15;0.75;;;4.90;81.90;;;;;;4971903;28;20032;-56
2022/12/07 07:30:30;;;;;;;5.30;0.90;;;4.90;81.90;;;;;;4970939;28;20026;-59
2022/12/07 07:33:01;;;;;;;1.60;0.95;;;4.90;81.90;;;;;;4971923;28;20225;-57
2022/12/07 07:35:28;;;;;;;0.57;0.38;;;4.80;81.90;;;;;;4970049;28;20043;-58
2022/12/07 07:37:54;;;;;;;0.65;0.65;;;4.90;82.00;;;;;;4972056;28;20041;-57
2022/12/07 07:40:20;;;;;;;0.40;0.40;;;4.80;81.90;;;;;;4970304;28;20074;-58
2022/12/07 07:42:53;;;;;;;1.17;0.73;;;4.80;81.90;;;;;;4964900;28;20034;-60
2022/12/07 07:45:21;;;;;;;0.95;0.50;;;4.80;81.80;;;;;;4970816;28;20082;-61
2022/12/07 07:47:46;;;;;;;0.55;0.55;;;4.80;81.90;;;;;;4965721;28;20046;-57
2022/12/07 07:50:12;;;;;;;3.03;0.50;;;4.70;81.80;;;;;;4972323;28;20038;-58
2022/12/07 07:52:38;;;;;;;0.50;0.38;;;4.70;81.90;;;;;;4972018;28;20034;-58
2022/12/07 07:55:04;;;;;;;0.77;0.60;;;4.70;81.90;;;;;;4968714;28;20743;-58
2022/12/07 07:57:30;;;;;;;1.70;0.65;;;4.80;82.00;;;;;;4969580;28;20039;-58
2022/12/07 07:59:56;;;;;;;1.20;1.10;;;4.80;82.00;;;;;;4970530;28;20872;-58
2022/12/07 08:02:22;;;;;;;0.52;0.47;;;4.80;81.90;;;;;;4972267;28;20042;-58
2022/12/07 08:04:48;;;;;;;3.92;0.68;;;4.80;81.90;;;;;;4972154;28;20018;-61
2022/12/07 08:07:15;;;;;;;1.50;1.00;;;4.80;81.80;;;;;;4972690;28;20114;-59
2022/12/07 08:09:41;;;;;;;0.82;0.77;;;4.90;81.80;;;;;;4971685;28;20422;-61
2022/12/07 08:12:07;;;;;;;0.73;0.70;;;4.90;81.80;;;;;;4972050;28;20070;-61
2022/12/07 08:14:33;;;;;;;2.50;0.68;;;4.90;81.90;;;;;;4972293;28;20039;-60
2022/12/07 08:16:59;;;;;;;0.40;0.40;;;4.90;81.80;;;;;;4971323;28;20027;-57
2022/12/07 08:19:25;;;;;;;1.13;0.80;;;4.90;81.90;;;;;;4969978;28;20053;-60
2022/12/07 08:21:51;;;;;;;0.68;0.68;;;5.00;81.80;;;;;;4971454;28;20039;-57
2022/12/07 08:24:17;;;;;;;1.27;0.47;;;5.00;81.70;;;;;;4969509;28;20497;-59
2022/12/07 08:26:43;;;;;;;0.50;0.50;;;5.10;81.70;;;;;;4967636;28;20088;-59
2022/12/07 08:29:09;;;;;;;0.85;0.65;;;5.20;81.60;;;;;;4971851;28;20034;-57
2022/12/07 08:31:35;;;;;;;2.60;1.08;;;5.30;81.50;;;;;;4969095;28;20041;-57
2022/12/07 08:34:01;;;;;;;1.73;0.82;;;5.40;81.40;;;;;;4966887;28;20039;-57
2022/12/07 08:36:27;;;;;;;1.33;0.95;;;5.50;81.30;;;;;;4967451;28;20042;-57
2022/12/07 08:38:52;;;;;;;0.40;0.40;;;5.60;81.30;;;;;;4968160;28;20338;-57
2022/12/07 08:41:18;;;;;;;0.75;0.60;;;5.70;81.30;;;;;;4968705;28;20062;-59
2022/12/07 08:43:44;;;;;;;3.88;1.83;;;5.70;81.20;;;;;;4971539;28;20026;-58
2022/12/07 08:46:19;;;;;;;1.95;0.75;;;5.70;81.30;;;;;;4971288;28;20035;-59
2022/12/07 08:49:05;;;;;;;0.93;0.80;;;5.80;82.00;;;;;;4971567;28;20465;-57
2022/12/07 08:51:32;;;;;;;2.17;0.70;;;5.80;81.40;;;;;;4967728;28;20832;-57
2022/12/07 08:54:00;;;;;;;2.20;0.98;;;5.80;81.40;;;;;;4965082;28;20126;-58
2022/12/07 08:56:26;;;;;;;1.42;0.70;;;5.80;81.30;;;;;;4968553;28;20027;-59
2022/12/07 08:58:52;;;;;;;1.15;0.63;;;5.90;81.30;;;;;;4968865;28;20046;-57
2022/12/07 09:01:18;;;;;;;1.02;0.50;;;5.90;81.30;;;;;;4970498;28;20031;-56
2022/12/07 09:03:44;;;;;;;1.75;0.90;;;5.80;81.30;;;;;;4965255;28;20494;-58
2022/12/07 09:06:10;;;;;;;2.70;0.60;;;5.90;81.40;;;;;;4970832;28;20066;-59
2022/12/07 09:08:41;;;;;;;0.60;0.60;;;5.90;81.40;;;;;;4969554;28;20023;-56
2022/12/07 09:11:06;;;;;;;2.20;1.00;;;6.00;81.50;;;;;;4968716;28;20031;-57
2022/12/07 09:13:32;;;;;;;1.73;0.77;;;6.00;81.40;;;;;;4968038;28;20019;-59
2022/12/07 09:15:58;;;;;;;2.85;0.73;;;6.10;81.30;;;;;;4962372;28;20074;-60
2022/12/07 09:18:24;;;;;;;0.82;0.40;;;6.20;81.10;;;;;;4970019;28;20030;-59
2022/12/07 09:20:50;;;;;;;2.45;0.40;;;6.20;81.00;;;;;;4971107;28;20023;-57
2022/12/07 09:23:16;;;;;;;0.98;0.77;;;6.20;81.00;;;;;;4969512;28;20038;-55
2022/12/07 09:25:42;;;;;;;1.90;1.02;;;6.30;81.10;;;;;;4969971;28;20027;-59
2022/12/07 09:28:08;;;;;;;1.13;0.65;;;6.30;81.00;;;;;;4969915;28;20031;-59
2022/12/07 09:30:34;;;;;;;1.25;0.80;;;6.40;81.00;;;;;;4970302;28;20062;-59
2022/12/07 09:33:00;;;;;;;2.03;0.95;;;6.50;80.90;;;;;;4969520;28;20026;-59
2022/12/07 09:35:26;;;;;;;0.50;0.50;;;6.60;80.80;;;;;;4969783;28;20031;-57
2022/12/07 09:37:52;;;;;;;1.30;0.77;;;6.70;80.60;;;;;;4970186;28;20539;-59
2022/12/07 09:40:20;;;;;;;1.00;0.68;;;6.80;80.50;;;;;;4968913;28;20062;-57
2022/12/07 09:42:51;;;;;;;1.67;0.90;;;6.80;80.40;;;;;;4972236;28;20409;-59
2022/12/07 09:45:36;;;;;;;1.45;0.80;;;6.90;80.40;;;;;;4968675;28;20555;-56
2022/12/07 09:48:05;;;;;;;1.05;0.70;;;7.00;80.30;;;;;;4968648;28;20042;-57
2022/12/07 09:50:31;;;;;;;1.70;0.93;;;7.00;80.40;;;;;;4973109;28;20478;-59
2022/12/07 09:53:14;;;;;;;1.20;0.50;;;7.00;80.40;;;;;;4973226;28;20027;-58
2022/12/07 09:55:42;;;;;;;1.77;0.75;;;7.10;80.30;;;;;;4973000;28;20117;-55
2022/12/07 09:58:20;;;;;;;1.80;0.55;;;7.10;80.30;;;;;;4974006;28;20031;-59
2022/12/07 10:00:46;;;;;;;1.30;0.57;;;7.20;80.30;;;;;;4971768;28;20157;-57
2022/12/07 10:03:12;;;;;;;1.80;0.52;;;7.20;80.20;;;;;;4974434;28;20066;-57
2022/12/07 10:05:45;;;;;;;1.17;0.75;;;7.10;80.10;;;;;;4973422;28;20195;-56
2022/12/07 10:08:16;;;;;;;0.98;0.68;;;7.10;80.20;;;;;;4972515;28;20030;-56
2022/12/07 10:10:44;;;;;;;6.38;2.03;;;7.10;80.30;;;;;;4971979;28;20050;-58
2022/12/07 10:13:12;;;;;;;5.20;1.10;;;7.10;80.40;;;;;;4968829;28;20122;-59
2022/12/07 10:15:53;;;;;;;3.05;0.85;;;7.30;80.80;;;;;;4964743;28;20395;-58
2022/12/07 10:18:25;;;;;;;1.67;0.98;;;7.90;80.80;;;;;;4972895;28;20453;-59
2022/12/07 10:21:38;;;;;;;1.13;0.70;;;9.00;78.40;;;;;;4969534;28;20038;-56
2022/12/07 10:24:15;;;;;;;1.75;0.95;;;10.00;75.30;;;;;;4950541;29;20697;-57
2022/12/07 10:26:46;;;;;;;5.15;0.88;;;10.60;72.40;;;;;;4946124;29;20185;-59
2022/12/07 10:29:17;;;;;;;1.23;0.75;;;10.50;71.90;;;;;;4961957;28;20567;-57
2022/12/07 10:31:44;;;;;;;2.90;0.95;;;10.20;72.50;;;;;;4968497;28;20050;-60
2022/12/07 10:34:24;;;;;;;1.48;0.80;;;10.00;72.60;;;;;;4970126;28;20437;-57
2022/12/07 10:36:50;;;;;;;0.63;0.50;;;9.90;73.20;;;;;;4968861;28;20043;-56
2022/12/07 10:39:21;;;;;;;5.95;1.38;;;10.00;73.50;;;;;;4970408;28;20062;-57
2022/12/07 10:42:00;;;;;;;0.65;0.50;;;10.20;73.40;;;;;;4963372;28;20027;-57
2022/12/07 10:44:29;;;;;;;4.95;0.90;;;10.50;73.00;;;;;;4971513;28;20146;-55
2022/12/07 10:47:12;;;;;;;0.60;0.60;;;10.90;72.30;;;;;;4970505;28;20022;-57
2022/12/07 10:49:53;;;;;;;0.32;0.30;;;10.90;71.40;;;;;;4987993;28;20224;-59
2022/12/07 10:52:34;;;;;;;1.77;1.05;;;10.60;71.50;;;;;;4971925;28;20027;-57
2022/12/07 10:55:47;;;;;;;9.70;0.80;;;10.60;72.40;;;;;;4987301;28;20022;-57
2022/12/07 10:58:45;;;;;;;3.85;0.63;;;11.30;69.10;;;;;;4966487;28;20058;-58
2022/12/07 11:01:16;;;;;;;0.82;0.57;;;11.10;68.40;;;;;;4946603;28;20188;-57
2022/12/07 11:04:08;;;;;;;1.37;0.77;;;10.80;69.10;;;;;;4990253;28;20042;-57
2022/12/07 11:06:56;;;;;;;1.45;0.95;;;10.30;70.30;;;;;;4978585;28;20023;-57
2022/12/07 11:09:59;;;;;;;0.73;0.60;;;9.90;71.70;;;;;;4971921;28;20394;-57
2022/12/07 11:12:46;;;;;;;3.60;0.95;;;9.50;72.60;;;;;;4970498;28;20037;-57
2022/12/07 11:15:17;;;;;;;0.32;0.32;;;9.30;73.40;;;;;;4971018;28;20122;-56
2022/12/07 11:18:21;;;;;;;0.80;0.70;;;9.30;73.50;;;;;;4973031;28;20370;-59
2022/12/07 11:21:06;;;;;;;1.13;0.60;;;9.70;73.30;;;;;;4965681;28;20030;-59
2022/12/07 11:24:02;;;;;;;2.30;0.93;;;10.70;72.10;;;;;;4971673;28;20117;-59
2022/12/07 11:27:05;;;;;;;0.90;0.70;;;12.60;68.90;;;;;;4967217;28;20026;-59
2022/12/07 11:29:30;;;;;;;3.67;0.70;;;14.50;64.80;;;;;;4970457;28;20020;-57
2022/12/07 11:32:24;;;;;;;1.15;0.70;;;16.50;59.00;;;;;;4971616;28;20086;-59
2022/12/07 11:35:16;;;;;;;1.65;0.90;;;18.00;56.10;;;;;;4972114;28;20069;-60
2022/12/07 11:37:42;;;;;;;0.65;0.60;;;19.50;53.20;;;;;;4970981;28;20027;-57
2022/12/07 11:40:35;;;;;;;2.67;0.85;;;20.40;51.20;;;;;;4970727;28;20058;-58
2022/12/07 11:43:27;;;;;;;0.65;0.50;;;21.50;49.40;;;;;;4970753;28;20606;-57
2022/12/07 11:46:04;;;;;;;2.75;1.05;;;22.40;47.40;;;;;;4971238;28;20046;-58
2022/12/07 11:48:52;;;;;;;3.00;0.75;;;23.10;46.20;;;;;;4960624;28;20038;-58
2022/12/07 11:51:20;;;;;;;0.90;0.65;;;23.50;43.80;;;;;;4971233;28;20054;-57
2022/12/07 11:54:02;;;;;;;1.42;0.77;;;23.50;43.70;;;;;;4971410;28;20019;-57
2022/12/07 11:56:29;;;;;;;1.00;0.55;;;23.50;43.50;;;;;;4972112;28;20436;-58
2022/12/07 11:59:00;;;;;;;3.15;0.50;;;23.70;42.80;;;;;;4971060;28;20092;-58
2022/12/07 12:01:37;;;;;;;0.98;0.70;;;23.50;42.20;;;;;;4971164;28;20466;-58
2022/12/07 12:04:09;;;;;;;0.90;0.63;;;22.10;43.00;;;;;;4971198;28;20039;-60
2022/12/07 12:06:38;;;;;;;1.25;1.15;;;20.00;44.60;;;;;;4971633;28;20454;-58
2022/12/07 12:09:13;;;;;;;3.60;0.80;;;17.90;48.20;;;;;;4970851;28;20034;-60
2022/12/07 12:11:44;;;;;;;0.50;0.40;;;16.00;51.30;;;;;;4970119;28;20065;-56
2022/12/07 12:14:26;;;;;;;1.45;0.65;;;14.60;54.20;;;;;;4970712;28;20026;-60
2022/12/07 12:17:11;;;;;;;1.23;0.77;;;13.50;56.10;;;;;;4969851;28;20530;-59
2022/12/07 12:20:05;;;;;;;1.00;0.68;;;12.70;58.30;;;;;;4971113;28;20035;-59
2022/12/07 12:22:41;;;;;;;0.77;0.73;;;12.70;60.40;;;;;;4970950;28;20758;-60
2022/12/07 12:25:18;;;;;;;1.50;0.70;;;14.80;58.10;;;;;;4970572;28;20054;-60
2022/12/07 12:27:47;;;;;;;0.85;0.57;;;17.10;53.50;;;;;;4969531;28;20089;-60
2022/12/07 12:30:25;;;;;;;0.90;0.60;;;18.70;49.80;;;;;;4969804;28;20027;-60
2022/12/07 12:32:52;;;;;;;0.40;0.40;;;19.40;48.10;;;;;;4970231;28;20035;-58
2022/12/07 12:35:30;;;;;;;0.75;0.40;;;19.70;46.60;;;;;;4969742;28;20800;-58
2022/12/07 12:38:21;;;;;;;3.40;0.70;;;19.90;46.00;;;;;;4969042;28;20026;-57
2022/12/07 12:40:47;;;;;;;0.75;0.57;;;19.90;46.20;;;;;;4970588;28;20041;-60
2022/12/07 12:43:43;;;;;;;0.80;0.50;;;20.00;46.20;;;;;;4969331;28;20035;-58
2022/12/07 12:46:53;;;;;;;1.67;0.60;;;19.50;45.90;;;;;;4963034;28;20496;-57
2022/12/07 12:49:19;;;;;;;0.75;0.40;;;17.80;46.00;;;;;;4945310;28;20039;-60
2022/12/07 12:51:48;;;;;;;0.93;0.75;;;16.20;49.70;;;;;;4966263;28;20046;-60
2022/12/07 12:54:19;;;;;;;2.78;1.05;;;15.10;52.20;;;;;;4970607;28;20074;-61
2022/12/07 12:57:06;;;;;;;5.03;0.95;;;14.20;54.10;;;;;;4970448;28;20085;-59
2022/12/07 12:59:36;;;;;;;1.38;0.68;;;13.30;56.00;;;;;;4970418;28;20031;-59
2022/12/07 13:02:22;;;;;;;1.23;0.65;;;13.10;57.30;;;;;;4971199;28;20030;-59
2022/12/07 13:05:12;;;;;;;3.38;1.33;;;13.10;57.30;;;;;;4967907;28;20031;-59
2022/12/07 13:07:47;;;;;;;2.83;0.93;;;13.40;57.30;;;;;;4970253;28;20025;-58
2022/12/07 13:10:30;;;;;;;3.65;0.55;;;13.80;56.80;;;;;;4970636;28;20033;-60
2022/12/07 13:13:11;;;;;;;1.67;1.02;;;14.50;55.50;;;;;;4969871;28;20037;-60
2022/12/07 13:15:42;;;;;;;0.38;0.38;;;15.60;54.30;;;;;;4969324;28;20126;-56
2022/12/07 13:18:27;;;;;;;1.60;0.50;;;16.90;52.00;;;;;;4971033;28;20102;-63
2022/12/07 13:21:13;;;;;;;1.17;0.60;;;17.90;49.80;;;;;;4970522;28;20042;-62